createdAt,value
2023-12-17T00:01:33.913Z,11.30
2023-12-17T00:06:38.917Z,12.30
2023-12-17T00:11:42.490Z,11.80
2023-12-17T00:16:45.417Z,12.00
2023-12-17T00:21:49.681Z,12.10
2023-12-17T00:26:56.085Z,12.10
2023-12-17T00:32:01.088Z,12.10
2023-12-17T00:37:05.928Z,11.60
2023-12-17T00:42:08.836Z,11.80
2023-12-17T00:47:11.752Z,12.00
2023-12-17T00:52:15.906Z,12.00
2023-12-17T00:57:22.234Z,10.80
2023-12-17T01:02:27.041Z,10.90
2023-12-17T01:07:30.001Z,11.30
2023-12-17T01:12:32.888Z,11.50
2023-12-17T01:17:35.878Z,10.80
2023-12-17T01:22:38.839Z,11.20
2023-12-17T01:27:41.997Z,11.00
2023-12-17T01:32:45.066Z,10.70
2023-12-17T01:37:48.460Z,10.40
2023-12-17T01:42:54.092Z,10.40
2023-12-17T01:47:57.096Z,10.00
2023-12-17T01:53:00.078Z,9.70
2023-12-17T01:58:04.269Z,9.70
2023-12-17T02:03:07.367Z,10.20
2023-12-17T02:08:10.377Z,10.90
2023-12-17T02:13:16.185Z,11.60
2023-12-17T02:18:19.252Z,10.90
2023-12-17T02:23:22.470Z,11.60
2023-12-17T02:28:25.331Z,11.50
2023-12-17T02:33:28.511Z,10.90
2023-12-17T02:38:31.434Z,11.10
2023-12-17T02:43:34.355Z,11.00
2023-12-17T02:48:37.451Z,11.30
2023-12-17T02:53:40.487Z,10.70
2023-12-17T02:58:43.371Z,10.30
2023-12-17T03:03:46.462Z,10.40
2023-12-17T03:08:49.522Z,11.30
2023-12-17T03:13:52.517Z,10.30
2023-12-17T03:18:55.712Z,10.50
2023-12-17T03:23:58.891Z,10.00
2023-12-17T03:29:01.988Z,10.20
2023-12-17T03:34:06.075Z,9.60
2023-12-17T03:39:09.224Z,9.60
2023-12-17T03:44:12.373Z,9.90
2023-12-17T03:49:15.374Z,10.30
2023-12-17T03:54:18.321Z,10.00
2023-12-17T03:59:21.205Z,9.30
2023-12-17T04:04:24.087Z,9.00
2023-12-17T04:09:27.011Z,10.10
2023-12-17T04:14:29.975Z,9.30
2023-12-17T04:19:32.984Z,8.50
2023-12-17T04:24:35.983Z,9.30
2023-12-17T04:29:38.836Z,9.70
2023-12-17T04:34:41.994Z,8.70
2023-12-17T04:39:44.995Z,8.50
2023-12-17T04:44:47.981Z,8.50
2023-12-17T04:49:51.018Z,8.30
2023-12-17T04:54:53.930Z,8.30
2023-12-17T04:59:58.194Z,8.00
2023-12-17T05:05:01.358Z,8.00
2023-12-17T05:10:04.673Z,7.90
2023-12-17T05:15:08.231Z,7.80
2023-12-17T05:20:11.404Z,7.20
2023-12-17T05:25:16.385Z,8.70
2023-12-17T05:30:20.598Z,7.60
2023-12-17T05:35:23.646Z,7.70
2023-12-17T05:40:26.599Z,7.50
2023-12-17T05:45:29.557Z,7.70
2023-12-17T05:50:32.480Z,7.20
2023-12-17T05:55:35.419Z,6.70
2023-12-17T06:00:39.486Z,6.70
2023-12-17T06:05:45.605Z,6.90
2023-12-17T06:10:50.454Z,6.80
2023-12-17T06:15:53.694Z,6.60
2023-12-17T06:20:56.589Z,7.00
2023-12-17T06:25:59.601Z,7.10
2023-12-17T06:31:02.655Z,6.80
2023-12-17T06:36:06.626Z,6.70
2023-12-17T06:41:09.605Z,6.00
2023-12-17T06:46:18.691Z,6.10
2023-12-17T06:51:21.659Z,6.10
2023-12-17T06:56:24.680Z,5.80
2023-12-17T07:01:29.752Z,5.90
2023-12-17T07:06:34.470Z,5.40
2023-12-17T07:11:37.403Z,6.20
2023-12-17T07:16:43.415Z,5.40
2023-12-17T07:21:46.420Z,5.20
2023-12-17T07:26:49.861Z,5.50
2023-12-17T07:31:54.416Z,5.20
2023-12-17T07:36:57.363Z,5.70
2023-12-17T07:42:03.599Z,5.00
2023-12-17T07:47:12.162Z,5.10
2023-12-17T07:52:16.520Z,5.00
2023-12-17T07:57:20.482Z,5.30
2023-12-17T08:02:25.337Z,4.70
2023-12-17T08:07:31.425Z,4.70
2023-12-17T08:12:34.628Z,4.60
2023-12-17T08:17:37.847Z,4.50
2023-12-17T08:22:40.935Z,4.40
2023-12-17T08:27:44.326Z,5.00
2023-12-17T08:32:47.870Z,4.50
2023-12-17T08:37:50.913Z,4.30
2023-12-17T08:42:54.005Z,4.60
2023-12-17T08:47:57.748Z,4.50
2023-12-17T08:53:02.149Z,4.60
2023-12-17T08:58:05.246Z,4.50
2023-12-17T09:03:11.356Z,4.50
2023-12-17T09:08:14.570Z,4.60
2023-12-17T09:13:17.541Z,4.60
2023-12-17T09:18:21.128Z,4.60
2023-12-17T09:23:24.181Z,4.50
2023-12-17T09:28:27.198Z,4.40
2023-12-17T09:33:30.241Z,5.10
2023-12-17T09:38:33.321Z,5.50
2023-12-17T09:43:36.232Z,5.40
2023-12-17T09:48:39.943Z,5.40
2023-12-17T09:53:44.014Z,4.90
2023-12-17T09:58:47.739Z,5.20
2023-12-17T10:03:51.235Z,5.50
2023-12-17T10:08:57.893Z,6.30
2023-12-17T10:14:02.020Z,6.20
2023-12-17T10:19:06.008Z,6.80
2023-12-17T10:24:12.063Z,6.20
2023-12-17T10:29:19.529Z,6.60
2023-12-17T10:34:24.724Z,6.90
2023-12-17T10:39:29.254Z,6.20
2023-12-17T10:44:34.188Z,6.40
2023-12-17T10:49:40.232Z,6.40
2023-12-17T10:54:43.267Z,6.00
2023-12-17T10:59:46.185Z,7.00
2023-12-17T11:04:50.491Z,6.70
2023-12-17T11:09:53.386Z,7.20
2023-12-17T11:14:56.477Z,7.30
2023-12-17T11:20:01.399Z,7.70
2023-12-17T11:25:12.482Z,7.50
2023-12-17T11:30:34.124Z,7.40
2023-12-17T11:40:42.155Z,7.10
2023-12-17T11:45:46.904Z,6.90
2023-12-17T11:50:50.855Z,6.30
2023-12-17T11:55:57.814Z,6.30
2023-12-17T12:01:04.322Z,6.30
2023-12-17T12:06:13.453Z,6.20
2023-12-17T12:11:19.319Z,6.10
2023-12-17T12:16:23.748Z,5.60
2023-12-17T12:21:27.921Z,5.60
2023-12-17T12:26:33.704Z,3.80
2023-12-17T12:31:37.342Z,3.00
2023-12-17T12:36:47.965Z,3.30
2023-12-17T12:41:51.458Z,3.40
2023-12-17T12:46:54.557Z,3.70
2023-12-17T12:51:58.042Z,3.40
2023-12-17T12:57:01.283Z,4.50
2023-12-17T13:02:05.207Z,4.30
2023-12-17T13:07:08.778Z,5.80
2023-12-17T13:12:12.566Z,5.70
2023-12-17T13:17:15.630Z,7.10
2023-12-17T13:22:18.657Z,7.10
2023-12-17T13:27:21.712Z,8.50
2023-12-17T13:32:24.722Z,10.40
2023-12-17T13:37:27.725Z,11.40
2023-12-17T13:42:30.845Z,11.60
2023-12-17T13:47:35.763Z,10.70
2023-12-17T13:52:42.141Z,11.10
2023-12-17T13:57:47.365Z,11.00
2023-12-17T14:02:51.973Z,11.20
2023-12-17T14:07:58.945Z,10.80
2023-12-17T14:13:02.044Z,10.20
2023-12-17T14:18:07.039Z,10.80
2023-12-17T14:23:13.998Z,10.80
2023-12-17T14:28:18.898Z,10.40
2023-12-17T14:33:22.519Z,9.50
2023-12-17T14:38:25.792Z,10.20
2023-12-17T14:43:28.809Z,10.70
2023-12-17T14:48:32.391Z,10.60
2023-12-17T14:53:43.657Z,11.10
2023-12-17T14:58:53.074Z,10.70
2023-12-17T15:03:58.240Z,11.60
2023-12-17T15:09:02.839Z,11.00
2023-12-17T15:14:06.073Z,12.10
2023-12-17T15:19:10.206Z,13.20
2023-12-17T15:24:13.256Z,14.40
2023-12-17T15:29:16.237Z,17.70
2023-12-17T15:34:19.442Z,15.60
2023-12-17T15:39:23.665Z,17.30
2023-12-17T15:44:29.888Z,18.00
2023-12-17T15:49:35.616Z,17.40
2023-12-17T15:54:38.903Z,17.40
2023-12-17T15:59:43.766Z,17.50
2023-12-17T16:04:46.750Z,17.80
2023-12-17T16:09:49.745Z,17.10
2023-12-17T16:14:55.043Z,16.80
2023-12-17T16:19:58.140Z,15.90
2023-12-17T16:25:01.389Z,16.70
2023-12-17T16:30:04.744Z,16.70
2023-12-17T16:35:10.022Z,15.90
2023-12-17T16:40:13.323Z,16.00
2023-12-17T16:45:16.392Z,15.20
2023-12-17T16:50:20.824Z,15.90
2023-12-17T16:55:23.852Z,16.30
2023-12-17T17:00:31.188Z,15.50
2023-12-17T17:05:34.865Z,15.10
2023-12-17T17:10:37.931Z,14.90
2023-12-17T17:15:41.061Z,15.20
2023-12-17T17:20:44.033Z,14.20
2023-12-17T17:25:48.139Z,14.70
2023-12-17T17:30:51.495Z,13.60
2023-12-17T17:35:54.686Z,13.50
2023-12-17T17:40:59.699Z,14.30
2023-12-17T17:46:04.744Z,13.40
2023-12-17T17:51:09.732Z,13.70
2023-12-17T17:56:13.133Z,13.50
2023-12-17T18:01:19.378Z,12.80
2023-12-17T18:06:22.718Z,12.20
2023-12-17T18:11:25.962Z,12.50
2023-12-17T18:16:29.159Z,12.00
2023-12-17T18:21:38.973Z,12.30
2023-12-17T18:26:42.185Z,12.00
2023-12-17T18:31:45.136Z,11.60
2023-12-17T18:36:49.557Z,11.20
2023-12-17T18:41:55.687Z,11.60
2023-12-17T18:47:00.564Z,11.00
2023-12-17T18:52:04.773Z,10.50
2023-12-17T18:57:07.885Z,10.70
2023-12-17T19:02:10.902Z,10.60
2023-12-17T19:07:13.996Z,10.80
2023-12-17T19:12:20.711Z,10.50
2023-12-17T19:17:25.784Z,10.40
2023-12-17T19:22:34.173Z,10.60
2023-12-17T19:27:39.564Z,9.60
2023-12-17T19:32:44.844Z,10.40
2023-12-17T19:37:48.114Z,10.80
2023-12-17T19:42:51.237Z,10.40
2023-12-17T19:47:54.325Z,10.90
2023-12-17T19:53:00.461Z,9.80
2023-12-17T19:58:05.645Z,10.50
2023-12-17T20:03:10.718Z,10.60
2023-12-17T20:08:13.794Z,10.10
2023-12-17T20:13:16.841Z,10.40
2023-12-17T20:18:21.224Z,10.20
2023-12-17T20:23:24.295Z,10.10
2023-12-17T20:28:27.305Z,9.80
2023-12-17T20:33:30.603Z,10.70
2023-12-17T20:38:34.672Z,10.10
2023-12-17T20:43:37.795Z,11.00
2023-12-17T20:48:40.998Z,11.00
2023-12-17T20:53:44.204Z,10.80
2023-12-17T20:58:49.391Z,10.20
2023-12-17T21:03:54.374Z,11.00
2023-12-17T21:08:57.635Z,11.10
2023-12-17T21:14:02.409Z,10.80
2023-12-17T21:19:09.693Z,11.20
2023-12-17T21:24:12.885Z,11.00
2023-12-17T21:29:15.988Z,11.10
2023-12-17T21:34:19.997Z,10.70
2023-12-17T21:39:23.082Z,10.80
2023-12-17T21:44:26.118Z,10.60
2023-12-17T21:49:30.642Z,10.90
2023-12-17T21:54:36.691Z,10.50
2023-12-17T21:59:40.114Z,10.30
2023-12-17T22:04:44.404Z,10.50
2023-12-17T22:09:47.578Z,10.50
2023-12-17T22:14:50.606Z,10.60
2023-12-17T22:19:55.472Z,9.60
2023-12-17T22:24:58.439Z,10.30
2023-12-17T22:30:01.801Z,10.00
2023-12-17T22:35:05.631Z,10.20
2023-12-17T22:40:09.283Z,9.80
2023-12-17T22:45:12.478Z,9.60
2023-12-17T22:50:15.634Z,9.30
2023-12-17T22:55:18.609Z,9.50
2023-12-17T23:00:22.536Z,8.70
2023-12-17T23:05:25.620Z,8.80
2023-12-17T23:10:28.577Z,8.70
2023-12-17T23:15:31.604Z,8.50
2023-12-17T23:20:34.551Z,8.80
2023-12-17T23:25:37.582Z,8.30
2023-12-17T23:30:40.673Z,7.90
2023-12-17T23:35:45.400Z,8.50
2023-12-17T23:40:50.307Z,8.30
2023-12-17T23:45:54.017Z,8.30
2023-12-17T23:51:00.253Z,8.40
2023-12-17T23:56:03.403Z,7.70
